Time;durP1;ratioP1;P1;durP2;ratioP2;P2;SDS_P1;SDS_P2;PMS_P1;PMS_P2;Temp;Humidity;BMP_temperature;BMP_pressure;BME280_temperature;BME280_humidity;BME280_pressure;Samples;Min_cycle;Max_cycle;Signal;HPM_P1;HPM_P2
2023/03/04 00:02:20;;;;;;;9.85;1.60;;;3.00;99.90;;;;;;4960344;28;20050;-67
2023/03/04 00:04:47;;;;;;;14.43;1.60;;;3.00;99.90;;;;;;4961840;28;20058;-69
2023/03/04 00:07:15;;;;;;;10.68;1.10;;;2.90;99.90;;;;;;4961934;28;20050;-66
2023/03/04 00:09:44;;;;;;;5.88;0.85;;;2.90;99.90;;;;;;4959844;28;21098;-65
2023/03/04 00:12:12;;;;;;;21.67;3.78;;;2.90;99.90;;;;;;4961642;28;20062;-69
2023/03/04 00:14:39;;;;;;;11.55;1.88;;;2.90;99.90;;;;;;4961468;28;20501;-70
2023/03/04 00:17:06;;;;;;;10.13;1.48;;;2.80;99.90;;;;;;4961188;28;20061;-67
2023/03/04 00:19:34;;;;;;;8.60;1.15;;;2.80;99.90;;;;;;4961583;28;20077;-67
2023/03/04 00:22:02;;;;;;;6.55;1.42;;;2.80;99.90;;;;;;4959889;28;20061;-69
2023/03/04 00:24:31;;;;;;;6.40;0.75;;;2.80;99.90;;;;;;4960756;28;20488;-69
2023/03/04 00:26:58;;;;;;;16.88;1.38;;;2.80;99.90;;;;;;4959832;28;20485;-68
2023/03/04 00:29:25;;;;;;;9.38;2.45;;;2.80;99.90;;;;;;4960413;28;20065;-70
2023/03/04 00:31:52;;;;;;;5.85;0.77;;;2.80;99.90;;;;;;4959349;28;20358;-69
2023/03/04 00:34:20;;;;;;;15.45;2.10;;;2.70;99.90;;;;;;4959824;28;20575;-65
2023/03/04 00:36:47;;;;;;;6.07;1.42;;;2.70;99.90;;;;;;4960978;28;20057;-69
2023/03/04 00:39:14;;;;;;;13.40;2.30;;;2.60;99.90;;;;;;4960747;28;20058;-66
2023/03/04 00:41:41;;;;;;;15.23;2.25;;;2.60;99.90;;;;;;4958894;28;20528;-69
2023/03/04 00:44:07;;;;;;;24.48;2.65;;;2.60;99.90;;;;;;4959166;28;20050;-65
2023/03/04 00:46:34;;;;;;;21.15;2.90;;;2.60;99.90;;;;;;4961271;28;20053;-66
2023/03/04 00:49:01;;;;;;;17.98;2.53;;;2.60;99.90;;;;;;4959301;28;20078;-71
2023/03/04 00:51:29;;;;;;;10.10;0.70;;;2.50;99.90;;;;;;4959995;28;20103;-67
2023/03/04 00:53:56;;;;;;;14.63;2.08;;;2.60;99.90;;;;;;4958161;28;20151;-69
2023/03/04 00:56:26;;;;;;;14.82;1.17;;;2.50;99.90;;;;;;4960490;28;20093;-65
2023/03/04 00:58:54;;;;;;;17.25;2.42;;;2.50;99.90;;;;;;4960744;28;20407;-70
2023/03/04 01:01:20;;;;;;;4.88;0.88;;;2.50;99.90;;;;;;4960265;28;20085;-66
2023/03/04 01:03:47;;;;;;;7.75;1.15;;;2.50;99.90;;;;;;4958819;28;20484;-69
2023/03/04 01:06:14;;;;;;;12.65;1.95;;;2.50;99.90;;;;;;4960392;28;20055;-65
2023/03/04 01:08:42;;;;;;;8.60;1.05;;;2.40;99.90;;;;;;4959753;28;20713;-68
2023/03/04 01:11:09;;;;;;;6.20;0.73;;;2.40;99.90;;;;;;4960190;28;20421;-68
2023/03/04 01:13:36;;;;;;;8.32;2.55;;;2.40;99.90;;;;;;4960568;28;20681;-65
2023/03/04 01:16:04;;;;;;;3.72;1.13;;;2.40;99.90;;;;;;4958270;28;20551;-69
2023/03/04 01:18:32;;;;;;;5.55;2.05;;;2.30;99.90;;;;;;4958317;28;20042;-68
2023/03/04 01:20:59;;;;;;;10.57;0.85;;;2.30;99.90;;;;;;4961018;28;20047;-65
2023/03/04 01:23:28;;;;;;;4.75;0.80;;;2.30;99.90;;;;;;4960196;28;20062;-67
2023/03/04 01:25:55;;;;;;;20.08;3.15;;;2.30;99.90;;;;;;4959189;28;20168;-69
2023/03/04 01:28:22;;;;;;;17.90;1.75;;;2.20;99.90;;;;;;4959748;28;20050;-68
2023/03/04 01:30:49;;;;;;;7.70;1.98;;;2.20;99.90;;;;;;4960567;28;20467;-70
2023/03/04 01:33:16;;;;;;;2.42;0.50;;;2.20;99.90;;;;;;4959524;28;20061;-69
2023/03/04 01:35:43;;;;;;;4.15;2.08;;;2.20;99.90;;;;;;4957739;28;20046;-70
2023/03/04 01:38:11;;;;;;;7.00;0.68;;;2.20;99.90;;;;;;4960332;28;20539;-68
2023/03/04 01:40:38;;;;;;;3.20;0.88;;;2.20;99.90;;;;;;4959072;28;20054;-68
2023/03/04 01:43:06;;;;;;;10.40;2.63;;;2.20;99.90;;;;;;4961148;28;20054;-67
2023/03/04 01:45:34;;;;;;;7.10;2.15;;;2.20;99.90;;;;;;4959528;28;20769;-67
2023/03/04 01:48:01;;;;;;;9.35;2.70;;;2.10;99.90;;;;;;4958585;28;20065;-67
2023/03/04 01:50:32;;;;;;;9.00;1.17;;;2.10;99.90;;;;;;4957872;28;20047;-68
2023/03/04 01:52:59;;;;;;;7.80;0.98;;;2.10;99.90;;;;;;4960189;28;20144;-69
2023/03/04 01:55:28;;;;;;;7.18;1.10;;;2.10;99.90;;;;;;4959846;28;20646;-66
2023/03/04 01:57:56;;;;;;;7.82;1.02;;;2.10;99.90;;;;;;4955983;28;20054;-68
2023/03/04 02:00:32;;;;;;;10.65;1.23;;;2.00;99.90;;;;;;4975542;28;20051;-68
2023/03/04 02:03:06;;;;;;;8.13;1.25;;;2.00;99.90;;;;;;4991334;28;20137;-70
2023/03/04 02:05:35;;;;;;;28.92;1.73;;;2.00;99.90;;;;;;4958327;28;20229;-73
2023/03/04 02:08:04;;;;;;;8.13;1.35;;;2.00;99.90;;;;;;4958500;28;20579;-67
2023/03/04 02:10:31;;;;;;;11.90;0.98;;;2.00;99.90;;;;;;4958968;28;20513;-68
2023/03/04 02:13:02;;;;;;;9.90;1.38;;;1.90;99.90;;;;;;4959346;28;20055;-71
2023/03/04 02:15:29;;;;;;;2.55;0.70;;;1.90;99.90;;;;;;4959844;28;20055;-66
2023/03/04 02:17:56;;;;;;;4.00;0.70;;;1.90;99.90;;;;;;4958271;28;20061;-67
2023/03/04 02:20:29;;;;;;;19.55;2.17;;;1.90;99.90;;;;;;4963087;28;20059;-65
2023/03/04 02:23:00;;;;;;;14.85;1.40;;;1.90;99.90;;;;;;4994910;28;20105;-68
2023/03/04 02:25:37;;;;;;;27.58;1.80;;;1.80;99.90;;;;;;4962283;28;20055;-70
2023/03/04 02:28:04;;;;;;;12.90;0.93;;;1.80;99.90;;;;;;4959877;28;20057;-66
2023/03/04 02:30:31;;;;;;;8.50;1.25;;;1.80;99.90;;;;;;4962391;28;20086;-68
2023/03/04 02:32:58;;;;;;;9.43;2.33;;;1.80;99.90;;;;;;4946392;28;20058;-70
2023/03/04 02:35:25;;;;;;;5.47;1.10;;;1.80;99.90;;;;;;4962121;28;20046;-66
2023/03/04 02:37:52;;;;;;;5.32;1.30;;;1.80;99.90;;;;;;4960855;28;20455;-68
2023/03/04 02:40:30;;;;;;;2.08;1.05;;;1.80;99.90;;;;;;4962479;28;20058;-72
2023/03/04 02:42:59;;;;;;;3.25;0.82;;;1.70;99.90;;;;;;4994283;28;20055;-71
2023/03/04 02:45:48;;;;;;;9.63;1.63;;;1.70;99.90;;;;;;4960364;28;20101;-68
2023/03/04 02:48:19;;;;;;;9.38;1.80;;;1.70;99.90;;;;;;4961929;28;20058;-71
2023/03/04 02:50:52;;;;;;;4.45;1.55;;;1.70;99.90;;;;;;4962522;28;20062;-69
2023/03/04 02:53:20;;;;;;;2.72;0.70;;;1.70;99.90;;;;;;4994160;28;20097;-69
2023/03/04 02:55:48;;;;;;;5.07;1.20;;;1.70;99.90;;;;;;4961651;28;20140;-68
2023/03/04 02:58:15;;;;;;;7.28;1.73;;;1.70;99.90;;;;;;4960675;28;20050;-69
2023/03/04 03:00:42;;;;;;;15.00;1.90;;;1.70;99.90;;;;;;4962332;28;20499;-66
2023/03/04 03:03:10;;;;;;;5.07;0.90;;;1.70;99.90;;;;;;4977382;28;20125;-68
2023/03/04 03:05:38;;;;;;;7.40;1.27;;;1.60;99.90;;;;;;4961990;28;20050;-72
2023/03/04 03:08:06;;;;;;;9.07;2.15;;;1.60;99.90;;;;;;4960244;28;20173;-70
2023/03/04 03:10:33;;;;;;;2.22;0.88;;;1.60;99.90;;;;;;4993856;28;20085;-67
2023/03/04 03:13:01;;;;;;;6.55;1.27;;;1.60;99.90;;;;;;4961493;28;20405;-67
2023/03/04 03:15:28;;;;;;;1.52;0.63;;;1.50;99.90;;;;;;4961446;28;21329;-66
2023/03/04 03:17:56;;;;;;;5.07;0.60;;;1.50;99.90;;;;;;4958795;28;20504;-66
2023/03/04 03:20:23;;;;;;;19.02;2.75;;;1.40;99.90;;;;;;4959326;28;20058;-69
2023/03/04 03:22:50;;;;;;;10.60;1.30;;;1.50;99.90;;;;;;4956733;28;20106;-70
2023/03/04 03:25:17;;;;;;;4.82;0.80;;;1.40;99.90;;;;;;4959787;28;20046;-68
2023/03/04 03:27:44;;;;;;;10.27;1.45;;;1.40;99.90;;;;;;4956151;28;20508;-67
2023/03/04 03:30:14;;;;;;;7.28;0.75;;;1.40;99.90;;;;;;4959343;28;20078;-69
2023/03/04 03:32:41;;;;;;;8.57;1.17;;;1.40;99.90;;;;;;4962573;28;20799;-66
2023/03/04 03:35:09;;;;;;;6.47;1.00;;;1.50;99.90;;;;;;4959731;28;20093;-67
2023/03/04 03:37:36;;;;;;;7.45;1.13;;;1.40;99.90;;;;;;4961550;28;20058;-69
2023/03/04 03:40:03;;;;;;;2.55;1.48;;;1.40;98.30;;;;;;4959818;28;20054;-71
2023/03/04 03:42:30;;;;;;;10.73;1.13;;;1.40;99.90;;;;;;4961923;28;20043;-71
2023/03/04 03:44:57;;;;;;;8.10;1.33;;;1.30;99.90;;;;;;4961990;28;20050;-68
2023/03/04 03:47:24;;;;;;;0.82;0.30;;;1.30;99.90;;;;;;4962399;28;20070;-68
2023/03/04 03:49:51;;;;;;;2.00;0.63;;;1.30;99.90;;;;;;4957783;28;20221;-69
2023/03/04 03:52:18;;;;;;;7.53;0.80;;;1.20;99.90;;;;;;4960774;28;20050;-69
2023/03/04 03:54:44;;;;;;;8.65;1.05;;;1.20;99.90;;;;;;4961859;28;20092;-68
2023/03/04 03:57:11;;;;;;;4.65;1.42;;;1.20;99.90;;;;;;4961634;28;20058;-70
2023/03/04 03:59:38;;;;;;;13.65;1.48;;;1.20;99.90;;;;;;4961580;28;20684;-66
2023/03/04 04:02:05;;;;;;;14.40;1.55;;;1.10;99.90;;;;;;4960184;28;20054;-67
2023/03/04 04:04:32;;;;;;;7.15;0.80;;;1.10;99.90;;;;;;4961596;28;20089;-69
2023/03/04 04:06:59;;;;;;;3.97;0.70;;;1.10;99.90;;;;;;4961244;28;20616;-67
2023/03/04 04:09:26;;;;;;;5.38;0.85;;;1.10;99.50;;;;;;4961961;28;20504;-70
2023/03/04 04:11:52;;;;;;;13.95;2.80;;;1.10;99.10;;;;;;4959627;28;20050;-67
2023/03/04 04:14:19;;;;;;;6.35;0.80;;;1.00;99.10;;;;;;4962189;28;20131;-65
2023/03/04 04:16:46;;;;;;;5.28;0.80;;;1.00;98.40;;;;;;4961077;28;20496;-68
2023/03/04 04:19:18;;;;;;;16.00;1.73;;;1.00;98.30;;;;;;4960411;28;20688;-70
2023/03/04 04:21:45;;;;;;;5.30;1.75;;;0.90;97.30;;;;;;4959116;28;20504;-70
2023/03/04 04:24:12;;;;;;;12.68;1.25;;;0.90;98.30;;;;;;4960516;28;20714;-69
2023/03/04 04:26:40;;;;;;;2.40;0.95;;;0.90;97.40;;;;;;4960773;28;20141;-67
2023/03/04 04:29:07;;;;;;;18.42;4.20;;;0.90;98.20;;;;;;4961764;28;20055;-69
2023/03/04 04:31:35;;;;;;;3.05;0.73;;;0.90;98.40;;;;;;4961056;28;20501;-68
2023/03/04 04:34:01;;;;;;;17.08;1.20;;;0.90;98.70;;;;;;4959349;28;20623;-69
2023/03/04 04:36:29;;;;;;;3.35;0.70;;;0.90;99.40;;;;;;4960626;28;20070;-69
2023/03/04 04:38:56;;;;;;;1.48;0.60;;;1.00;99.50;;;;;;4961873;28;20693;-66
2023/03/04 04:41:30;;;;;;;3.58;0.60;;;0.90;99.60;;;;;;4959922;28;20845;-68
2023/03/04 04:43:57;;;;;;;12.65;1.00;;;0.80;97.80;;;;;;4958633;28;20465;-68
2023/03/04 04:46:25;;;;;;;7.13;1.15;;;0.80;97.70;;;;;;4961418;28;20512;-69
2023/03/04 04:48:52;;;;;;;10.45;1.40;;;0.80;99.90;;;;;;4959716;28;20039;-67
2023/03/04 04:51:19;;;;;;;5.10;1.17;;;0.70;99.90;;;;;;4961289;28;20374;-69
2023/03/04 04:53:46;;;;;;;11.02;1.80;;;0.60;99.90;;;;;;4957006;28;20057;-65
2023/03/04 04:56:16;;;;;;;12.40;1.92;;;0.50;99.90;;;;;;4955698;28;20046;-68
2023/03/04 04:58:43;;;;;;;;;;;0.50;99.90;;;;;;4956736;28;20050;-66
2023/03/04 05:01:11;;;;;;;7.45;0.90;;;0.30;99.90;;;;;;4959281;28;19926;-71
2023/03/04 05:03:38;;;;;;;5.03;1.35;;;0.20;99.90;;;;;;4961254;28;20043;-69
2023/03/04 05:06:07;;;;;;;30.73;1.27;;;0.10;99.90;;;;;;4959186;28;20054;-67
2023/03/04 05:08:35;;;;;;;10.07;1.00;;;0.10;99.90;;;;;;4960769;28;20061;-71
2023/03/04 05:11:05;;;;;;;4.15;0.70;;;0.00;99.90;;;;;;4960157;28;20540;-67
2023/03/04 05:13:32;;;;;;;5.72;2.05;;;0.00;99.90;;;;;;4960629;28;20055;-69
2023/03/04 05:15:59;;;;;;;5.97;0.82;;;-0.10;99.90;;;;;;4956704;28;20061;-69
2023/03/04 05:18:27;;;;;;;3.05;0.80;;;0.00;99.90;;;;;;4960104;28;20050;-69
2023/03/04 05:20:56;;;;;;;10.20;1.45;;;0.00;99.90;;;;;;4958384;28;20047;-69
2023/03/04 05:23:23;;;;;;;12.85;1.20;;;0.20;99.90;;;;;;4959738;28;20050;-72
2023/03/04 05:25:50;;;;;;;8.75;2.00;;;0.20;99.90;;;;;;4959372;28;20962;-67
2023/03/04 05:28:18;;;;;;;4.53;1.50;;;0.20;99.90;;;;;;4960018;28;20059;-68
2023/03/04 05:30:46;;;;;;;4.53;0.77;;;0.30;99.90;;;;;;4960029;28;20520;-66
2023/03/04 05:33:15;;;;;;;6.95;1.67;;;0.30;99.90;;;;;;4959848;28;20066;-66
2023/03/04 05:35:43;;;;;;;5.80;1.58;;;0.20;99.90;;;;;;4957725;28;20072;-64
2023/03/04 05:38:13;;;;;;;5.75;1.10;;;0.20;99.70;;;;;;4958832;28;20464;-68
2023/03/04 05:40:41;;;;;;;3.83;2.27;;;0.20;99.80;;;;;;4960432;28;20050;-65
2023/03/04 05:43:08;;;;;;;11.73;1.45;;;0.20;99.30;;;;;;4960183;28;20055;-67
2023/03/04 05:45:35;;;;;;;9.68;1.38;;;0.20;99.80;;;;;;4959802;28;20130;-67
2023/03/04 05:48:03;;;;;;;2.40;0.85;;;0.00;99.90;;;;;;4959128;28;20054;-67
2023/03/04 05:50:30;;;;;;;4.97;1.77;;;-0.10;99.90;;;;;;4959989;28;20142;-68
2023/03/04 05:52:57;;;;;;;19.13;3.05;;;-0.40;99.90;;;;;;4961255;28;20051;-67
2023/03/04 05:55:24;;;;;;;7.30;1.30;;;-0.50;99.90;;;;;;4966326;28;20042;-67
2023/03/04 05:57:51;;;;;;;3.58;1.55;;;-0.70;99.90;;;;;;4964939;28;20050;-68
2023/03/04 06:00:18;;;;;;;7.40;1.23;;;-0.60;99.90;;;;;;4966725;28;20469;-64
2023/03/04 06:02:45;;;;;;;9.07;1.50;;;-0.50;99.90;;;;;;4966162;28;20047;-64
2023/03/04 06:05:13;;;;;;;6.55;1.30;;;-0.20;99.90;;;;;;4966468;28;20054;-69
2023/03/04 06:07:42;;;;;;;15.25;1.40;;;-0.20;98.50;;;;;;4964784;28;20059;-64
2023/03/04 06:10:11;;;;;;;13.57;1.70;;;-0.10;97.20;;;;;;4965969;28;20058;-69
2023/03/04 06:12:39;;;;;;;5.10;0.60;;;-0.10;97.10;;;;;;4965836;28;20042;-66
2023/03/04 06:15:08;;;;;;;24.17;1.98;;;-0.10;97.80;;;;;;4966065;28;20043;-67
2023/03/04 06:17:36;;;;;;;5.32;1.17;;;0.00;96.60;;;;;;4965820;28;20432;-68
2023/03/04 06:20:06;;;;;;;8.02;1.50;;;0.00;96.30;;;;;;4964353;28;20055;-67
2023/03/04 06:22:34;;;;;;;5.03;0.95;;;0.00;96.00;;;;;;4966679;28;20090;-66
2023/03/04 06:25:01;;;;;;;6.65;1.10;;;0.00;97.90;;;;;;4966197;28;20057;-70
2023/03/04 06:27:28;;;;;;;9.45;0.80;;;0.00;97.70;;;;;;4966281;28;20150;-72
2023/03/04 06:29:55;;;;;;;12.75;1.33;;;0.00;99.10;;;;;;4964636;28;20129;-65
2023/03/04 06:32:22;;;;;;;4.68;1.05;;;-0.10;95.80;;;;;;4966168;28;20139;-66
2023/03/04 06:34:49;;;;;;;1.77;0.77;;;-0.10;94.30;;;;;;4965189;28;20047;-67
2023/03/04 06:37:16;;;;;;;9.38;2.42;;;-0.10;96.60;;;;;;4966265;28;20057;-66
2023/03/04 06:39:44;;;;;;;11.32;1.35;;;-0.10;96.20;;;;;;4964052;28;20058;-65
2023/03/04 06:42:11;;;;;;;30.63;4.97;;;-0.10;95.70;;;;;;4965826;28;20055;-65
2023/03/04 06:44:38;;;;;;;4.00;0.50;;;-0.20;96.70;;;;;;4966770;28;20407;-65
2023/03/04 06:47:05;;;;;;;3.00;0.60;;;-0.40;96.10;;;;;;4965093;28;20053;-68
2023/03/04 06:49:32;;;;;;;11.65;2.03;;;-0.40;94.90;;;;;;4966787;28;20054;-70
2023/03/04 06:51:59;;;;;;;3.85;1.65;;;-0.30;96.90;;;;;;4964665;28;20073;-69
2023/03/04 06:54:26;;;;;;;16.55;2.42;;;-0.30;97.00;;;;;;4965438;28;20043;-70
2023/03/04 06:56:53;;;;;;;12.20;1.08;;;-0.30;95.70;;;;;;4964812;28;20046;-66
2023/03/04 06:59:20;;;;;;;4.13;0.98;;;-0.30;95.10;;;;;;4965826;28;20062;-67
2023/03/04 07:01:47;;;;;;;2.22;0.95;;;-0.30;97.10;;;;;;4964536;28;20692;-68
2023/03/04 07:04:14;;;;;;;3.15;1.38;;;-0.30;96.30;;;;;;4965200;28;20128;-69
2023/03/04 07:06:41;;;;;;;5.50;0.90;;;-0.30;97.90;;;;;;4962038;28;20110;-68
2023/03/04 07:09:07;;;;;;;9.45;1.30;;;-0.30;97.10;;;;;;4961407;28;20093;-69
2023/03/04 07:11:34;;;;;;;3.50;0.75;;;-0.20;97.30;;;;;;4962664;28;20057;-70
2023/03/04 07:14:01;;;;;;;6.90;0.88;;;-0.20;97.60;;;;;;4959726;28;20580;-66
2023/03/04 07:16:28;;;;;;;6.53;0.80;;;-0.20;97.10;;;;;;4962874;28;20043;-68
2023/03/04 07:18:55;;;;;;;6.78;2.30;;;-0.30;96.40;;;;;;4961617;28;20813;-68
2023/03/04 07:21:22;;;;;;;19.27;1.52;;;-0.40;95.50;;;;;;4962960;28;20363;-68
2023/03/04 07:23:49;;;;;;;34.15;4.65;;;-0.40;96.10;;;;;;4960032;28;20587;-67
2023/03/04 07:26:16;;;;;;;12.00;3.58;;;-0.70;99.10;;;;;;4962593;28;20440;-66
2023/03/04 07:28:43;;;;;;;7.80;2.00;;;-0.60;97.90;;;;;;4961964;28;20134;-69
2023/03/04 07:31:28;;;;;;;8.52;1.35;;;-0.60;97.30;;;;;;4961419;28;20150;-72
2023/03/04 07:34:04;;;;;;;6.30;0.90;;;-0.60;96.70;;;;;;4960526;28;20115;-69
2023/03/04 07:36:32;;;;;;;7.20;1.42;;;-0.50;94.20;;;;;;4961566;28;20039;-68
2023/03/04 07:38:59;;;;;;;8.88;1.55;;;-0.60;94.90;;;;;;4962252;28;20054;-71
2023/03/04 07:41:27;;;;;;;9.02;0.75;;;-0.60;96.90;;;;;;4963074;28;20046;-68
2023/03/04 07:43:56;;;;;;;25.25;2.45;;;-0.60;95.40;;;;;;4959599;28;21118;-65
2023/03/04 07:46:24;;;;;;;3.40;1.15;;;-0.60;96.40;;;;;;4962201;28;20399;-64
2023/03/04 07:48:51;;;;;;;3.75;0.95;;;-0.60;98.20;;;;;;4961599;28;20058;-66
2023/03/04 07:51:20;;;;;;;2.47;1.00;;;-0.60;96.70;;;;;;4962151;28;20078;-67
2023/03/04 07:53:51;;;;;;;12.07;1.00;;;-0.60;97.10;;;;;;4959901;28;20053;-68
2023/03/04 07:56:21;;;;;;;7.22;0.90;;;-0.60;96.10;;;;;;4961584;28;20732;-71
2023/03/04 07:58:49;;;;;;;;;;;-0.50;98.10;;;;;;4962461;28;20623;-67
2023/03/04 08:01:19;;;;;;;7.70;0.93;;;-0.40;95.60;;;;;;4992310;28;20168;-67
2023/03/04 08:03:45;;;;;;;6.35;1.15;;;-0.40;95.80;;;;;;4959776;28;20046;-71
2023/03/04 08:06:15;;;;;;;2.75;0.32;;;-0.40;94.40;;;;;;4961022;28;20791;-71
2023/03/04 08:08:42;;;;;;;3.30;1.00;;;-0.40;96.40;;;;;;4963399;28;20152;-66
2023/03/04 08:11:13;;;;;;;6.82;0.93;;;-0.50;96.40;;;;;;4961418;28;20411;-71
2023/03/04 08:13:39;;;;;;;;;;;-0.50;96.20;;;;;;4960305;28;20051;-68
2023/03/04 08:16:07;;;;;;;7.15;1.23;;;-0.50;96.20;;;;;;4961297;28;20013;-69
2023/03/04 08:18:34;;;;;;;5.72;1.42;;;-0.60;96.30;;;;;;4960705;28;20051;-68
2023/03/04 08:21:00;;;;;;;6.57;0.85;;;-0.60;96.50;;;;;;4961472;28;20061;-72
2023/03/04 08:23:27;;;;;;;4.30;1.00;;;-0.60;98.20;;;;;;4961595;28;20650;-66
2023/03/04 08:25:54;;;;;;;3.45;1.02;;;-0.60;97.30;;;;;;4960242;28;20050;-65
2023/03/04 08:28:22;;;;;;;4.00;0.98;;;-0.60;98.30;;;;;;4960293;28;20070;-68
2023/03/04 08:30:53;;;;;;;4.97;1.15;;;-0.60;96.30;;;;;;4959836;28;20138;-68
2023/03/04 08:33:20;;;;;;;4.32;1.42;;;-0.70;96.40;;;;;;4959331;28;20047;-68
2023/03/04 08:35:47;;;;;;;4.10;0.65;;;-0.80;97.00;;;;;;4958136;28;20058;-73
2023/03/04 08:38:14;;;;;;;3.67;1.13;;;-0.70;97.60;;;;;;4961899;28;20155;-69
2023/03/04 08:40:41;;;;;;;3.22;1.23;;;-0.60;96.80;;;;;;4961684;28;20598;-66
2023/03/04 08:43:08;;;;;;;9.23;1.27;;;-0.50;96.80;;;;;;4961543;28;20101;-67
2023/03/04 08:45:35;;;;;;;6.30;0.70;;;-0.60;96.40;;;;;;4960913;28;20051;-70
2023/03/04 08:48:02;;;;;;;3.72;0.73;;;-0.70;95.40;;;;;;4959248;28;20050;-66
2023/03/04 08:50:28;;;;;;;6.18;0.65;;;-0.70;97.20;;;;;;4959797;28;20057;-66
2023/03/04 08:52:57;;;;;;;5.72;0.98;;;-0.70;96.60;;;;;;4961992;28;20076;-67
2023/03/04 08:55:24;;;;;;;11.57;1.85;;;-0.80;95.60;;;;;;4960074;28;20925;-67
2023/03/04 08:57:51;;;;;;;5.60;2.30;;;-0.70;97.70;;;;;;4959958;28;20054;-66
2023/03/04 09:00:18;;;;;;;5.90;1.38;;;-0.70;97.60;;;;;;4961085;28;20058;-68
2023/03/04 09:02:45;;;;;;;5.15;1.83;;;-0.70;98.40;;;;;;4961156;28;20057;-65
2023/03/04 09:05:12;;;;;;;2.42;0.47;;;-0.50;99.90;;;;;;4960798;28;20509;-72
2023/03/04 09:07:39;;;;;;;10.68;2.88;;;-0.60;98.00;;;;;;4961108;28;20050;-67
2023/03/04 09:10:06;;;;;;;2.75;1.02;;;-0.70;97.70;;;;;;4958713;28;20062;-70
2023/03/04 09:12:33;;;;;;;3.55;0.50;;;-0.60;98.10;;;;;;4959370;28;20059;-70
2023/03/04 09:15:00;;;;;;;4.82;0.85;;;-0.50;98.00;;;;;;4961020;28;20069;-68
2023/03/04 09:17:38;;;;;;;9.48;1.00;;;-0.60;97.40;;;;;;4960431;28;20497;-69
2023/03/04 09:20:10;;;;;;;5.20;1.15;;;-0.60;98.00;;;;;;4959107;28;20053;-65
2023/03/04 09:22:39;;;;;;;2.78;1.02;;;-0.60;97.20;;;;;;4959351;28;21168;-66
2023/03/04 09:25:06;;;;;;;7.10;1.23;;;-0.60;98.30;;;;;;4960101;28;20047;-72
2023/03/04 09:27:39;;;;;;;3.08;1.13;;;-0.60;97.70;;;;;;4959782;28;20054;-71
2023/03/04 09:30:06;;;;;;;14.73;1.75;;;-0.60;97.80;;;;;;4958673;28;20050;-70
2023/03/04 09:32:33;;;;;;;2.15;0.60;;;-0.60;97.70;;;;;;4959824;28;20057;-69
2023/03/04 09:35:00;;;;;;;6.18;0.70;;;-0.60;98.30;;;;;;4960705;28;20051;-69
2023/03/04 09:37:27;;;;;;;6.72;1.40;;;-0.60;97.60;;;;;;4959832;28;20176;-69
2023/03/04 09:39:54;;;;;;;8.52;1.30;;;-0.60;99.00;;;;;;4958718;28;21012;-65
2023/03/04 09:42:29;;;;;;;3.72;1.10;;;-0.50;99.30;;;;;;4958456;28;20086;-66
2023/03/04 09:44:56;;;;;;;6.97;2.20;;;-0.60;97.90;;;;;;4960159;28;20141;-68
2023/03/04 09:47:24;;;;;;;2.10;0.88;;;-0.50;99.40;;;;;;4959643;28;20049;-64
2023/03/04 09:50:01;;;;;;;3.30;0.80;;;-0.50;98.70;;;;;;4959520;28;20065;-65
2023/03/04 09:52:43;;;;;;;3.40;0.63;;;-0.40;98.90;;;;;;4958851;28;20848;-64
2023/03/04 09:55:15;;;;;;;5.70;1.70;;;-0.40;99.20;;;;;;4959443;28;20070;-68
2023/03/04 09:57:42;;;;;;;15.93;1.55;;;-0.40;98.90;;;;;;4958867;28;20058;-67
2023/03/04 10:00:18;;;;;;;5.20;0.70;;;-0.40;98.40;;;;;;4960669;28;20050;-66
2023/03/04 10:03:04;;;;;;;5.07;0.98;;;-0.40;98.00;;;;;;4959506;28;20086;-65
2023/03/04 10:05:36;;;;;;;7.68;1.08;;;-0.30;99.30;;;;;;4961001;28;20077;-68
2023/03/04 10:08:32;;;;;;;5.25;1.83;;;-0.40;98.10;;;;;;4958149;28;20061;-68
2023/03/04 10:11:00;;;;;;;3.55;1.42;;;-0.50;98.90;;;;;;4959298;28;20101;-68
2023/03/04 10:13:52;;;;;;;3.85;1.10;;;-0.50;98.30;;;;;;4960520;28;20054;-64
2023/03/04 10:16:24;;;;;;;9.98;0.80;;;-0.50;97.80;;;;;;4957583;28;20893;-65
2023/03/04 10:19:01;;;;;;;9.35;1.38;;;-0.50;98.40;;;;;;4959651;28;20235;-65
2023/03/04 10:21:48;;;;;;;4.97;0.77;;;-0.40;98.80;;;;;;4960696;28;20132;-67
2023/03/04 10:24:18;;;;;;;6.53;1.10;;;-0.40;99.60;;;;;;4958651;28;20065;-67
2023/03/04 10:26:50;;;;;;;21.02;3.17;;;-0.30;98.90;;;;;;4959552;28;20057;-69
2023/03/04 10:29:20;;;;;;;2.30;1.52;;;-0.30;98.80;;;;;;4958451;28;20055;-68
2023/03/04 10:31:48;;;;;;;3.92;0.82;;;-0.30;98.80;;;;;;4958547;28;20054;-68
2023/03/04 10:34:16;;;;;;;6.55;1.88;;;-0.40;97.90;;;;;;4958922;28;21415;-67
2023/03/04 10:36:55;;;;;;;10.02;1.42;;;-0.30;99.10;;;;;;4959583;28;20043;-66
2023/03/04 10:39:33;;;;;;;3.80;1.13;;;-0.30;98.60;;;;;;4959005;28;20148;-68
2023/03/04 10:42:03;;;;;;;11.40;1.33;;;-0.30;98.70;;;;;;4961388;28;20401;-66
2023/03/04 10:44:32;;;;;;;5.75;0.90;;;-0.30;98.10;;;;;;4962888;28;20051;-68
2023/03/04 10:47:00;;;;;;;5.63;1.88;;;-0.30;98.60;;;;;;4963174;28;20078;-66
2023/03/04 10:49:28;;;;;;;13.05;2.03;;;-0.10;99.90;;;;;;4962584;28;20052;-70
2023/03/04 10:52:14;;;;;;;3.40;0.93;;;-0.20;99.70;;;;;;4961776;28;20419;-70
2023/03/04 10:54:47;;;;;;;7.65;0.98;;;-0.20;98.90;;;;;;4963667;28;20055;-69
2023/03/04 10:57:20;;;;;;;3.70;0.90;;;-0.30;97.90;;;;;;4962546;28;20161;-69
2023/03/04 10:59:53;;;;;;;9.75;2.15;;;-0.20;99.20;;;;;;4962018;28;20137;-70
2023/03/04 11:02:36;;;;;;;2.95;0.55;;;-0.20;98.70;;;;;;4961724;28;20077;-73
2023/03/04 11:05:08;;;;;;;9.18;1.80;;;-0.20;97.60;;;;;;4963118;28;20066;-69
2023/03/04 11:07:39;;;;;;;7.93;1.42;;;-0.10;99.80;;;;;;4962525;28;20059;-70
2023/03/04 11:10:21;;;;;;;6.43;1.35;;;-0.10;99.50;;;;;;4961717;28;20185;-67
2023/03/04 11:13:15;;;;;;;13.25;1.83;;;-0.10;99.00;;;;;;4962671;28;20575;-68
2023/03/04 11:15:53;;;;;;;13.05;1.35;;;-0.10;99.00;;;;;;4959740;28;20057;-68
2023/03/04 11:18:40;;;;;;;5.90;1.05;;;-0.10;98.10;;;;;;4962411;28;20043;-69
2023/03/04 11:21:12;;;;;;;4.18;0.85;;;-0.10;98.20;;;;;;4962984;28;20058;-70
2023/03/04 11:23:50;;;;;;;7.25;1.95;;;-0.10;99.40;;;;;;4960253;28;20134;-70
2023/03/04 11:26:42;;;;;;;3.85;0.73;;;0.00;99.40;;;;;;4962044;28;20870;-66
2023/03/04 11:29:24;;;;;;;6.47;0.65;;;-0.10;98.50;;;;;;4962714;28;20528;-66
2023/03/04 11:32:10;;;;;;;3.55;1.30;;;-0.10;98.00;;;;;;4961432;28;20090;-70
2023/03/04 11:35:06;;;;;;;4.68;2.08;;;-0.10;99.20;;;;;;4961844;28;20133;-69
2023/03/04 11:37:43;;;;;;;8.85;1.60;;;0.00;99.30;;;;;;4961931;28;20047;-67
2023/03/04 11:40:20;;;;;;;8.60;1.23;;;0.10;99.90;;;;;;4960780;28;20050;-68
2023/03/04 11:42:56;;;;;;;1.63;0.43;;;0.10;99.90;;;;;;4962280;28;20057;-72
2023/03/04 11:45:47;;;;;;;5.80;1.30;;;0.10;99.40;;;;;;4962485;28;20061;-72
2023/03/04 11:48:23;;;;;;;4.03;0.85;;;0.10;99.30;;;;;;4960568;28;20387;-67
2023/03/04 11:51:01;;;;;;;5.88;1.27;;;0.00;98.50;;;;;;4960954;28;20074;-69
2023/03/04 11:54:05;;;;;;;7.28;1.85;;;0.10;99.60;;;;;;4962187;28;20062;-70
2023/03/04 11:56:43;;;;;;;4.50;0.63;;;0.10;99.90;;;;;;4960766;28;20582;-66
2023/03/04 11:59:19;;;;;;;4.50;1.00;;;0.10;99.90;;;;;;4962088;28;20060;-68
2023/03/04 12:02:00;;;;;;;3.47;1.38;;;0.20;99.90;;;;;;4960152;28;20145;-74
2023/03/04 12:04:56;;;;;;;5.35;1.85;;;0.30;99.90;;;;;;4961208;28;20062;-68
2023/03/04 12:07:35;;;;;;;4.78;1.02;;;0.20;99.90;;;;;;4962255;28;20051;-65
2023/03/04 12:10:21;;;;;;;5.30;0.80;;;0.20;99.90;;;;;;4960091;28;20058;-66
2023/03/04 12:12:57;;;;;;;6.13;1.65;;;0.30;99.90;;;;;;4961184;28;20062;-68
2023/03/04 12:15:29;;;;;;;3.30;1.00;;;0.20;99.90;;;;;;4961872;28;20047;-67
2023/03/04 12:18:17;;;;;;;4.10;0.90;;;0.30;99.90;;;;;;4959712;28;20058;-67
2023/03/04 12:21:10;;;;;;;6.72;0.90;;;0.30;99.90;;;;;;4961019;28;20602;-67
2023/03/04 12:23:54;;;;;;;11.15;1.48;;;0.30;99.90;;;;;;4960844;28;20052;-71
2023/03/04 12:26:31;;;;;;;5.47;1.70;;;0.40;99.90;;;;;;4960512;28;20054;-68
2023/03/04 12:29:17;;;;;;;9.13;0.80;;;0.50;99.90;;;;;;4961818;28;20884;-69
2023/03/04 12:32:07;;;;;;;3.45;0.80;;;0.50;99.90;;;;;;4960144;28;20512;-71
2023/03/04 12:34:34;;;;;;;7.28;1.30;;;0.60;99.90;;;;;;4960534;28;20047;-68
2023/03/04 12:37:30;;;;;;;4.20;1.38;;;0.60;99.90;;;;;;4960922;28;20137;-67
2023/03/04 12:40:25;;;;;;;12.20;1.08;;;0.60;99.90;;;;;;4960087;28;20159;-65
2023/03/04 12:43:00;;;;;;;9.55;1.35;;;0.60;99.90;;;;;;4960020;28;20120;-66
2023/03/04 12:46:06;;;;;;;7.60;1.48;;;0.70;99.90;;;;;;4961411;28;20051;-68
2023/03/04 12:48:40;;;;;;;6.38;1.35;;;0.70;99.90;;;;;;4922690;28;20055;-67
2023/03/04 12:51:13;;;;;;;9.60;1.10;;;0.70;99.90;;;;;;4960535;28;20509;-66
2023/03/04 12:53:55;;;;;;;7.28;1.13;;;0.70;99.90;;;;;;4959181;28;20051;-68
2023/03/04 12:56:22;;;;;;;4.95;0.75;;;0.70;99.90;;;;;;4960914;28;20145;-67
2023/03/04 12:58:49;;;;;;;6.60;1.23;;;0.70;99.90;;;;;;4960864;28;20042;-70
2023/03/04 13:01:34;;;;;;;2.22;0.60;;;0.70;99.90;;;;;;4959826;28;20595;-68
2023/03/04 13:04:17;;;;;;;1.55;0.93;;;0.70;99.90;;;;;;4958264;28;20513;-68
2023/03/04 13:06:59;;;;;;;8.40;1.27;;;0.80;99.90;;;;;;4960453;28;20102;-68
2023/03/04 13:09:33;;;;;;;8.63;1.42;;;0.80;99.90;;;;;;4959892;28;20077;-67